createdAt,value
2018-10-02T16:35:34.549Z,83.80
2018-10-02T16:38:02.727Z,85.20
2018-10-02T16:40:32.081Z,83.20
2018-10-02T16:43:00.221Z,82.80
2018-10-02T16:45:28.359Z,82.40
2018-10-02T16:47:56.604Z,82.40
2018-10-02T16:50:24.775Z,82.00
2018-10-02T16:52:53.012Z,81.80
2018-10-02T16:55:21.169Z,81.80
2018-10-02T16:57:49.339Z,82.10
2018-10-02T17:00:17.519Z,81.80
2018-10-02T17:02:45.741Z,81.20
2018-10-02T17:05:13.909Z,82.10
2018-10-02T17:07:42.052Z,81.30
2018-10-02T17:10:10.176Z,81.50
2018-10-02T17:12:38.348Z,81.60
2018-10-02T17:15:06.789Z,81.20
2018-10-02T17:17:34.978Z,81.20
2018-10-02T17:20:03.185Z,80.90
2018-10-02T17:22:31.348Z,80.60
2018-10-02T17:24:59.559Z,80.60
2018-10-02T17:27:27.748Z,80.50
2018-10-02T17:29:55.905Z,82.20
2018-10-02T17:32:24.043Z,84.80
2018-10-02T17:34:52.201Z,87.40
2018-10-02T17:37:20.344Z,87.90
2018-10-02T17:39:48.499Z,87.60
2018-10-02T17:42:16.663Z,88.10
2018-10-02T17:44:44.821Z,89.20
2018-10-02T17:47:12.960Z,88.70
2018-10-02T17:49:41.119Z,89.30
2018-10-02T17:52:09.653Z,90.20
2018-10-02T17:54:37.833Z,89.10
2018-10-02T17:57:06.013Z,90.30
2018-10-02T17:59:34.167Z,91.60
2018-10-02T18:02:02.325Z,91.40
2018-10-02T18:04:30.591Z,91.20
2018-10-02T18:06:58.793Z,91.20
2018-10-02T18:09:26.947Z,91.00
2018-10-02T18:11:55.481Z,91.30
2018-10-02T18:14:23.718Z,91.30
2018-10-02T18:16:51.905Z,91.40
2018-10-02T18:19:24.208Z,91.60
2018-10-02T18:21:52.379Z,91.80
2018-10-02T18:24:20.584Z,92.10
2018-10-02T18:26:48.763Z,92.40
2018-10-02T18:29:16.933Z,92.20
2018-10-02T18:31:45.284Z,92.30
2018-10-02T18:34:13.450Z,92.30
2018-10-02T18:36:41.617Z,92.50
2018-10-02T18:39:09.880Z,92.00
2018-10-02T18:41:38.136Z,91.70
2018-10-02T18:44:06.354Z,91.60
2018-10-02T18:46:35.107Z,91.60
2018-10-02T18:49:06.166Z,91.20
2018-10-02T18:51:34.293Z,91.40
2018-10-02T18:54:06.149Z,91.10
2018-10-02T18:56:34.483Z,90.90
2018-10-02T18:59:02.664Z,90.90
2018-10-02T19:01:30.837Z,90.90
2018-10-02T19:03:59.013Z,90.70
2018-10-02T19:06:27.942Z,90.60
2018-10-02T19:09:01.675Z,90.80
2018-10-02T19:11:35.274Z,90.80
2018-10-02T19:14:03.689Z,90.70
2018-10-02T19:16:33.565Z,90.80
2018-10-02T19:19:01.737Z,91.00
2018-10-02T19:21:30.217Z,90.80
2018-10-02T19:23:58.399Z,90.80
2018-10-02T19:26:28.840Z,90.90
2018-10-02T19:28:56.982Z,90.70
2018-10-02T19:31:30.683Z,90.80
2018-10-02T19:33:59.573Z,90.80
2018-10-02T19:36:27.753Z,90.80
2018-10-02T19:38:57.886Z,90.90
2018-10-02T19:41:26.721Z,90.90
2018-10-02T19:43:55.271Z,90.80
2018-10-02T19:46:26.904Z,90.70
2018-10-02T19:48:55.488Z,90.70
2018-10-02T19:51:29.039Z,90.70
2018-10-02T19:53:57.508Z,90.70
2018-10-02T19:56:27.002Z,90.50
2018-10-02T19:58:55.940Z,90.40
2018-10-02T20:01:24.971Z,90.30
2018-10-02T20:03:53.960Z,90.20
2018-10-02T20:06:22.125Z,90.10
2018-10-02T20:08:50.320Z,89.80
2018-10-02T20:11:18.580Z,89.90
2018-10-02T20:13:46.847Z,89.40
2018-10-02T20:16:14.954Z,89.40
2018-10-02T20:18:43.118Z,89.20
2018-10-02T20:21:11.293Z,89.20
2018-10-02T20:23:39.458Z,89.10
2018-10-02T20:26:07.629Z,89.10
2018-10-02T20:28:36.052Z,89.50
2018-10-02T20:31:04.250Z,88.70
2018-10-02T20:33:32.424Z,88.90
2018-10-02T20:36:00.594Z,88.70
2018-10-02T20:38:28.767Z,88.90
2018-10-02T20:40:56.908Z,89.00
2018-10-02T20:43:25.069Z,89.10
2018-10-02T20:45:53.209Z,89.10
2018-10-02T20:48:21.361Z,88.90
2018-10-02T20:50:49.668Z,89.00
2018-10-02T20:53:17.821Z,89.00
2018-10-02T20:55:46.261Z,88.90
2018-10-02T20:58:14.433Z,88.90
